sensor_id;sensor_type;location;lat;lon;timestamp;P1;durP1;ratioP1;P2;durP2;ratioP2
15938;SDS011;8068;51.322;9.450;2023-04-25T00:00:37;2.00;;;1.80;;
15938;SDS011;8068;51.322;9.450;2023-04-25T00:03:03;2.23;;;2.03;;
15938;SDS011;8068;51.322;9.450;2023-04-25T00:05:31;2.20;;;2.00;;
15938;SDS011;8068;51.322;9.450;2023-04-25T00:07:58;3.77;;;2.70;;
15938;SDS011;8068;51.322;9.450;2023-04-25T00:10:24;4.00;;;2.40;;
15938;SDS011;8068;51.322;9.450;2023-04-25T00:12:50;3.33;;;2.17;;
15938;SDS011;8068;51.322;9.450;2023-04-25T00:15:17;2.40;;;2.20;;
15938;SDS011;8068;51.322;9.450;2023-04-25T00:17:43;2.40;;;2.30;;
15938;SDS011;8068;51.322;9.450;2023-04-25T00:20:11;2.57;;;2.47;;
15938;SDS011;8068;51.322;9.450;2023-04-25T00:22:37;2.60;;;2.40;;
15938;SDS011;8068;51.322;9.450;2023-04-25T00:25:04;2.50;;;2.40;;
15938;SDS011;8068;51.322;9.450;2023-04-25T00:27:31;7.20;;;2.77;;
15938;SDS011;8068;51.322;9.450;2023-04-25T00:29:57;2.53;;;2.30;;
15938;SDS011;8068;51.322;9.450;2023-04-25T00:32:23;2.53;;;2.33;;
15938;SDS011;8068;51.322;9.450;2023-04-25T00:34:49;2.07;;;1.97;;
15938;SDS011;8068;51.322;9.450;2023-04-25T00:37:15;2.43;;;2.30;;
15938;SDS011;8068;51.322;9.450;2023-04-25T00:39:42;2.10;;;2.00;;
15938;SDS011;8068;51.322;9.450;2023-04-25T00:42:08;2.40;;;2.20;;
15938;SDS011;8068;51.322;9.450;2023-04-25T00:44:34;3.47;;;2.13;;
15938;SDS011;8068;51.322;9.450;2023-04-25T00:47:01;2.17;;;1.93;;
15938;SDS011;8068;51.322;9.450;2023-04-25T00:49:28;2.67;;;2.47;;
15938;SDS011;8068;51.322;9.450;2023-04-25T00:51:54;3.50;;;3.20;;
15938;SDS011;8068;51.322;9.450;2023-04-25T00:54:21;4.27;;;2.93;;
15938;SDS011;8068;51.322;9.450;2023-04-25T00:56:48;2.73;;;2.53;;
15938;SDS011;8068;51.322;9.450;2023-04-25T00:59:14;3.27;;;3.07;;
15938;SDS011;8068;51.322;9.450;2023-04-25T01:01:41;3.13;;;2.83;;
15938;SDS011;8068;51.322;9.450;2023-04-25T01:04:07;3.10;;;3.00;;
15938;SDS011;8068;51.322;9.450;2023-04-25T01:06:33;3.40;;;3.10;;
15938;SDS011;8068;51.322;9.450;2023-04-25T01:09:00;3.40;;;3.20;;
15938;SDS011;8068;51.322;9.450;2023-04-25T01:11:26;3.20;;;3.00;;
15938;SDS011;8068;51.322;9.450;2023-04-25T01:13:53;3.83;;;3.53;;
15938;SDS011;8068;51.322;9.450;2023-04-25T01:16:19;3.50;;;3.20;;
15938;SDS011;8068;51.322;9.450;2023-04-25T01:18:46;4.37;;;3.90;;
15938;SDS011;8068;51.322;9.450;2023-04-25T01:21:12;3.83;;;3.50;;
15938;SDS011;8068;51.322;9.450;2023-04-25T01:23:39;3.67;;;3.47;;
15938;SDS011;8068;51.322;9.450;2023-04-25T01:26:06;8.17;;;4.80;;
15938;SDS011;8068;51.322;9.450;2023-04-25T01:28:35;3.70;;;3.43;;
15938;SDS011;8068;51.322;9.450;2023-04-25T01:31:01;5.73;;;3.63;;
15938;SDS011;8068;51.322;9.450;2023-04-25T01:33:27;3.47;;;3.27;;
15938;SDS011;8068;51.322;9.450;2023-04-25T01:35:55;3.90;;;3.57;;
15938;SDS011;8068;51.322;9.450;2023-04-25T01:38:21;3.83;;;3.10;;
15938;SDS011;8068;51.322;9.450;2023-04-25T01:40:47;4.07;;;3.40;;
15938;SDS011;8068;51.322;9.450;2023-04-25T01:43:15;5.53;;;3.97;;
15938;SDS011;8068;51.322;9.450;2023-04-25T01:45:41;7.93;;;4.40;;
15938;SDS011;8068;51.322;9.450;2023-04-25T01:48:08;4.07;;;3.77;;
15938;SDS011;8068;51.322;9.450;2023-04-25T01:50:38;9.80;;;3.90;;
15938;SDS011;8068;51.322;9.450;2023-04-25T01:53:05;7.80;;;4.33;;
15938;SDS011;8068;51.322;9.450;2023-04-25T01:55:31;8.60;;;4.17;;
15938;SDS011;8068;51.322;9.450;2023-04-25T01:57:57;8.60;;;3.93;;
15938;SDS011;8068;51.322;9.450;2023-04-25T02:00:25;9.27;;;4.60;;
15938;SDS011;8068;51.322;9.450;2023-04-25T02:02:51;4.50;;;4.10;;
15938;SDS011;8068;51.322;9.450;2023-04-25T02:05:19;5.47;;;4.60;;
15938;SDS011;8068;51.322;9.450;2023-04-25T02:07:46;5.23;;;4.73;;
15938;SDS011;8068;51.322;9.450;2023-04-25T02:10:13;4.63;;;4.20;;
15938;SDS011;8068;51.322;9.450;2023-04-25T02:12:39;6.93;;;4.97;;
15938;SDS011;8068;51.322;9.450;2023-04-25T02:15:05;5.03;;;4.23;;
15938;SDS011;8068;51.322;9.450;2023-04-25T02:17:32;4.80;;;4.50;;
15938;SDS011;8068;51.322;9.450;2023-04-25T02:19:58;4.90;;;4.50;;
15938;SDS011;8068;51.322;9.450;2023-04-25T02:22:24;6.80;;;4.77;;
15938;SDS011;8068;51.322;9.450;2023-04-25T02:24:50;6.57;;;4.80;;
15938;SDS011;8068;51.322;9.450;2023-04-25T02:27:16;5.17;;;4.70;;
15938;SDS011;8068;51.322;9.450;2023-04-25T02:29:43;4.90;;;4.60;;
15938;SDS011;8068;51.322;9.450;2023-04-25T02:32:09;6.60;;;5.00;;
15938;SDS011;8068;51.322;9.450;2023-04-25T02:34:35;5.03;;;4.17;;
15938;SDS011;8068;51.322;9.450;2023-04-25T02:37:01;8.20;;;5.10;;
15938;SDS011;8068;51.322;9.450;2023-04-25T02:39:27;4.83;;;3.73;;
15938;SDS011;8068;51.322;9.450;2023-04-25T02:41:53;5.90;;;5.40;;
15938;SDS011;8068;51.322;9.450;2023-04-25T02:44:19;4.90;;;4.50;;
15938;SDS011;8068;51.322;9.450;2023-04-25T02:46:45;6.10;;;5.30;;
15938;SDS011;8068;51.322;9.450;2023-04-25T02:49:12;6.20;;;4.30;;
15938;SDS011;8068;51.322;9.450;2023-04-25T02:51:38;5.27;;;4.80;;
15938;SDS011;8068;51.322;9.450;2023-04-25T02:54:04;5.00;;;4.70;;
15938;SDS011;8068;51.322;9.450;2023-04-25T02:56:30;12.33;;;5.30;;
15938;SDS011;8068;51.322;9.450;2023-04-25T02:58:56;6.80;;;5.20;;
15938;SDS011;8068;51.322;9.450;2023-04-25T03:01:23;8.87;;;5.17;;
15938;SDS011;8068;51.322;9.450;2023-04-25T03:03:49;5.50;;;5.00;;
15938;SDS011;8068;51.322;9.450;2023-04-25T03:06:15;5.30;;;4.90;;
15938;SDS011;8068;51.322;9.450;2023-04-25T03:08:42;15.77;;;5.67;;
15938;SDS011;8068;51.322;9.450;2023-04-25T03:11:08;5.67;;;4.70;;
15938;SDS011;8068;51.322;9.450;2023-04-25T03:13:34;6.23;;;5.30;;
15938;SDS011;8068;51.322;9.450;2023-04-25T03:16:00;6.83;;;5.57;;
15938;SDS011;8068;51.322;9.450;2023-04-25T03:18:26;5.87;;;4.40;;
15938;SDS011;8068;51.322;9.450;2023-04-25T03:20:53;7.20;;;5.40;;
15938;SDS011;8068;51.322;9.450;2023-04-25T03:23:19;10.20;;;5.83;;
15938;SDS011;8068;51.322;9.450;2023-04-25T03:25:45;6.40;;;5.80;;
15938;SDS011;8068;51.322;9.450;2023-04-25T03:28:11;6.60;;;5.27;;
15938;SDS011;8068;51.322;9.450;2023-04-25T03:30:37;8.23;;;5.80;;
15938;SDS011;8068;51.322;9.450;2023-04-25T03:33:03;7.63;;;5.87;;
15938;SDS011;8068;51.322;9.450;2023-04-25T03:35:29;10.00;;;5.60;;
15938;SDS011;8068;51.322;9.450;2023-04-25T03:37:56;10.17;;;5.80;;
15938;SDS011;8068;51.322;9.450;2023-04-25T03:40:22;11.03;;;5.50;;
15938;SDS011;8068;51.322;9.450;2023-04-25T03:42:48;5.83;;;5.23;;
15938;SDS011;8068;51.322;9.450;2023-04-25T03:45:14;8.77;;;5.20;;
15938;SDS011;8068;51.322;9.450;2023-04-25T03:47:40;10.97;;;5.20;;
15938;SDS011;8068;51.322;9.450;2023-04-25T03:50:06;6.53;;;5.07;;
15938;SDS011;8068;51.322;9.450;2023-04-25T03:52:33;9.10;;;4.87;;
15938;SDS011;8068;51.322;9.450;2023-04-25T03:54:59;5.97;;;4.70;;
15938;SDS011;8068;51.322;9.450;2023-04-25T03:57:25;5.60;;;5.10;;
15938;SDS011;8068;51.322;9.450;2023-04-25T03:59:51;6.07;;;4.70;;
15938;SDS011;8068;51.322;9.450;2023-04-25T04:02:17;5.67;;;5.30;;
15938;SDS011;8068;51.322;9.450;2023-04-25T04:04:44;5.80;;;5.23;;
15938;SDS011;8068;51.322;9.450;2023-04-25T04:07:10;7.10;;;5.60;;
15938;SDS011;8068;51.322;9.450;2023-04-25T04:09:36;5.77;;;5.27;;
15938;SDS011;8068;51.322;9.450;2023-04-25T04:12:03;11.70;;;8.57;;
15938;SDS011;8068;51.322;9.450;2023-04-25T04:14:29;5.23;;;4.83;;
15938;SDS011;8068;51.322;9.450;2023-04-25T04:16:55;5.83;;;5.33;;
15938;SDS011;8068;51.322;9.450;2023-04-25T04:19:21;5.30;;;4.90;;
15938;SDS011;8068;51.322;9.450;2023-04-25T04:21:48;5.70;;;4.60;;
15938;SDS011;8068;51.322;9.450;2023-04-25T04:24:14;6.43;;;4.77;;
15938;SDS011;8068;51.322;9.450;2023-04-25T04:26:42;13.20;;;5.00;;
15938;SDS011;8068;51.322;9.450;2023-04-25T04:29:10;6.13;;;4.93;;
15938;SDS011;8068;51.322;9.450;2023-04-25T04:31:37;11.40;;;5.57;;
15938;SDS011;8068;51.322;9.450;2023-04-25T04:34:03;5.30;;;4.80;;
15938;SDS011;8068;51.322;9.450;2023-04-25T04:36:29;6.77;;;5.20;;
15938;SDS011;8068;51.322;9.450;2023-04-25T04:38:55;6.83;;;5.50;;
15938;SDS011;8068;51.322;9.450;2023-04-25T04:41:22;5.73;;;5.10;;
15938;SDS011;8068;51.322;9.450;2023-04-25T04:43:48;8.13;;;5.37;;
15938;SDS011;8068;51.322;9.450;2023-04-25T04:46:14;10.83;;;5.60;;
15938;SDS011;8068;51.322;9.450;2023-04-25T04:48:42;7.77;;;4.83;;
15938;SDS011;8068;51.322;9.450;2023-04-25T04:51:08;9.67;;;6.40;;
15938;SDS011;8068;51.322;9.450;2023-04-25T04:53:34;8.83;;;6.43;;
15938;SDS011;8068;51.322;9.450;2023-04-25T04:56:00;5.73;;;5.17;;
15938;SDS011;8068;51.322;9.450;2023-04-25T04:58:26;5.50;;;5.10;;
15938;SDS011;8068;51.322;9.450;2023-04-25T05:00:55;5.87;;;5.10;;
15938;SDS011;8068;51.322;9.450;2023-04-25T05:03:21;9.40;;;5.20;;
15938;SDS011;8068;51.322;9.450;2023-04-25T05:05:48;19.80;;;12.60;;
15938;SDS011;8068;51.322;9.450;2023-04-25T05:08:14;12.93;;;9.10;;
15938;SDS011;8068;51.322;9.450;2023-04-25T05:10:40;8.50;;;7.70;;
15938;SDS011;8068;51.322;9.450;2023-04-25T05:13:07;3.50;;;3.20;;
15938;SDS011;8068;51.322;9.450;2023-04-25T05:15:33;3.10;;;3.00;;
15938;SDS011;8068;51.322;9.450;2023-04-25T05:17:59;3.63;;;3.43;;
15938;SDS011;8068;51.322;9.450;2023-04-25T05:20:25;3.23;;;3.13;;
15938;SDS011;8068;51.322;9.450;2023-04-25T05:22:52;3.77;;;3.53;;
15938;SDS011;8068;51.322;9.450;2023-04-25T05:25:18;3.23;;;3.03;;
15938;SDS011;8068;51.322;9.450;2023-04-25T05:27:44;2.93;;;2.73;;
15938;SDS011;8068;51.322;9.450;2023-04-25T05:30:10;3.23;;;3.13;;
15938;SDS011;8068;51.322;9.450;2023-04-25T05:32:36;3.27;;;3.17;;
15938;SDS011;8068;51.322;9.450;2023-04-25T05:35:02;4.20;;;3.90;;
15938;SDS011;8068;51.322;9.450;2023-04-25T05:37:29;5.97;;;4.13;;
15938;SDS011;8068;51.322;9.450;2023-04-25T05:39:56;3.80;;;3.50;;
15938;SDS011;8068;51.322;9.450;2023-04-25T05:42:23;4.00;;;3.80;;
15938;SDS011;8068;51.322;9.450;2023-04-25T05:44:49;4.13;;;3.50;;
15938;SDS011;8068;51.322;9.450;2023-04-25T05:47:15;3.40;;;3.10;;
15938;SDS011;8068;51.322;9.450;2023-04-25T05:49:41;3.13;;;2.93;;
15938;SDS011;8068;51.322;9.450;2023-04-25T05:52:07;3.47;;;3.27;;
15938;SDS011;8068;51.322;9.450;2023-04-25T05:54:33;3.30;;;3.00;;
15938;SDS011;8068;51.322;9.450;2023-04-25T05:56:59;3.10;;;2.90;;
15938;SDS011;8068;51.322;9.450;2023-04-25T05:59:25;2.90;;;2.80;;
15938;SDS011;8068;51.322;9.450;2023-04-25T06:01:51;3.70;;;3.50;;
15938;SDS011;8068;51.322;9.450;2023-04-25T06:04:18;3.10;;;2.90;;
15938;SDS011;8068;51.322;9.450;2023-04-25T06:06:44;3.10;;;3.00;;
15938;SDS011;8068;51.322;9.450;2023-04-25T06:09:11;2.90;;;2.27;;
15938;SDS011;8068;51.322;9.450;2023-04-25T06:11:39;2.43;;;1.97;;
15938;SDS011;8068;51.322;9.450;2023-04-25T06:14:06;2.73;;;2.23;;
15938;SDS011;8068;51.322;9.450;2023-04-25T06:16:32;2.00;;;1.90;;
15938;SDS011;8068;51.322;9.450;2023-04-25T06:18:58;4.57;;;2.27;;
15938;SDS011;8068;51.322;9.450;2023-04-25T06:21:25;2.70;;;2.20;;
15938;SDS011;8068;51.322;9.450;2023-04-25T06:23:51;4.03;;;2.17;;
15938;SDS011;8068;51.322;9.450;2023-04-25T06:26:17;2.30;;;2.10;;
15938;SDS011;8068;51.322;9.450;2023-04-25T06:28:44;7.57;;;2.53;;
15938;SDS011;8068;51.322;9.450;2023-04-25T06:31:10;3.13;;;2.53;;
15938;SDS011;8068;51.322;9.450;2023-04-25T06:33:36;6.47;;;3.13;;
15938;SDS011;8068;51.322;9.450;2023-04-25T06:36:02;6.40;;;2.80;;
15938;SDS011;8068;51.322;9.450;2023-04-25T06:38:29;5.93;;;2.93;;
15938;SDS011;8068;51.322;9.450;2023-04-25T06:40:55;2.50;;;2.30;;
15938;SDS011;8068;51.322;9.450;2023-04-25T06:43:21;5.80;;;2.27;;
15938;SDS011;8068;51.322;9.450;2023-04-25T06:45:47;3.30;;;2.17;;
15938;SDS011;8068;51.322;9.450;2023-04-25T06:48:14;4.10;;;2.63;;
15938;SDS011;8068;51.322;9.450;2023-04-25T06:50:41;3.90;;;3.13;;
15938;SDS011;8068;51.322;9.450;2023-04-25T06:53:07;5.93;;;3.03;;
15938;SDS011;8068;51.322;9.450;2023-04-25T06:55:34;4.00;;;2.80;;
15938;SDS011;8068;51.322;9.450;2023-04-25T06:58:01;3.43;;;3.10;;
15938;SDS011;8068;51.322;9.450;2023-04-25T07:00:27;7.50;;;3.60;;
15938;SDS011;8068;51.322;9.450;2023-04-25T07:02:54;6.27;;;3.33;;
15938;SDS011;8068;51.322;9.450;2023-04-25T07:05:20;9.57;;;3.33;;
15938;SDS011;8068;51.322;9.450;2023-04-25T07:07:46;15.17;;;4.60;;
15938;SDS011;8068;51.322;9.450;2023-04-25T07:10:13;12.80;;;4.43;;
15938;SDS011;8068;51.322;9.450;2023-04-25T07:12:39;4.90;;;2.80;;
15938;SDS011;8068;51.322;9.450;2023-04-25T07:15:05;5.90;;;5.00;;
15938;SDS011;8068;51.322;9.450;2023-04-25T07:17:33;12.87;;;4.33;;
15938;SDS011;8068;51.322;9.450;2023-04-25T07:20:00;9.97;;;3.63;;
15938;SDS011;8068;51.322;9.450;2023-04-25T07:22:26;15.70;;;4.10;;
15938;SDS011;8068;51.322;9.450;2023-04-25T07:24:52;7.63;;;3.70;;
15938;SDS011;8068;51.322;9.450;2023-04-25T07:27:19;15.53;;;3.23;;
15938;SDS011;8068;51.322;9.450;2023-04-25T07:29:45;14.10;;;4.03;;
15938;SDS011;8068;51.322;9.450;2023-04-25T07:32:12;13.10;;;3.40;;
15938;SDS011;8068;51.322;9.450;2023-04-25T07:34:39;13.53;;;4.07;;
15938;SDS011;8068;51.322;9.450;2023-04-25T07:37:05;10.87;;;4.23;;
15938;SDS011;8068;51.322;9.450;2023-04-25T07:39:31;7.47;;;4.00;;
15938;SDS011;8068;51.322;9.450;2023-04-25T07:41:58;6.80;;;4.10;;
15938;SDS011;8068;51.322;9.450;2023-04-25T07:44:24;65.10;;;8.07;;
15938;SDS011;8068;51.322;9.450;2023-04-25T07:46:51;26.90;;;5.60;;
15938;SDS011;8068;51.322;9.450;2023-04-25T07:49:17;12.97;;;4.20;;
15938;SDS011;8068;51.322;9.450;2023-04-25T07:51:43;9.70;;;3.90;;
15938;SDS011;8068;51.322;9.450;2023-04-25T07:54:12;47.00;;;4.80;;
15938;SDS011;8068;51.322;9.450;2023-04-25T07:56:39;9.20;;;3.60;;
15938;SDS011;8068;51.322;9.450;2023-04-25T07:59:18;12.17;;;4.27;;
15938;SDS011;8068;51.322;9.450;2023-04-25T08:01:44;22.97;;;4.50;;
15938;SDS011;8068;51.322;9.450;2023-04-25T08:04:11;5.07;;;2.80;;
15938;SDS011;8068;51.322;9.450;2023-04-25T08:06:37;8.83;;;2.70;;
15938;SDS011;8068;51.322;9.450;2023-04-25T08:09:03;8.67;;;3.03;;
15938;SDS011;8068;51.322;9.450;2023-04-25T08:11:29;8.57;;;2.83;;
15938;SDS011;8068;51.322;9.450;2023-04-25T08:13:56;12.23;;;3.93;;
15938;SDS011;8068;51.322;9.450;2023-04-25T08:16:22;16.13;;;3.10;;
15938;SDS011;8068;51.322;9.450;2023-04-25T08:18:48;8.53;;;2.90;;
15938;SDS011;8068;51.322;9.450;2023-04-25T08:21:16;15.43;;;3.70;;
15938;SDS011;8068;51.322;9.450;2023-04-25T08:23:42;11.57;;;2.80;;
15938;SDS011;8068;51.322;9.450;2023-04-25T08:26:08;10.17;;;3.10;;
15938;SDS011;8068;51.322;9.450;2023-04-25T08:28:34;12.30;;;3.60;;
15938;SDS011;8068;51.322;9.450;2023-04-25T08:31:00;6.27;;;2.33;;
15938;SDS011;8068;51.322;9.450;2023-04-25T08:33:26;9.03;;;3.90;;
15938;SDS011;8068;51.322;9.450;2023-04-25T08:35:53;5.93;;;2.67;;
15938;SDS011;8068;51.322;9.450;2023-04-25T08:38:20;8.13;;;3.60;;
15938;SDS011;8068;51.322;9.450;2023-04-25T08:40:49;6.13;;;2.90;;
15938;SDS011;8068;51.322;9.450;2023-04-25T08:43:16;9.60;;;3.07;;
15938;SDS011;8068;51.322;9.450;2023-04-25T08:45:44;12.23;;;2.80;;
15938;SDS011;8068;51.322;9.450;2023-04-25T08:48:12;7.17;;;2.90;;
15938;SDS011;8068;51.322;9.450;2023-04-25T08:50:40;9.93;;;3.60;;
15938;SDS011;8068;51.322;9.450;2023-04-25T08:53:09;6.83;;;2.53;;
15938;SDS011;8068;51.322;9.450;2023-04-25T08:55:42;8.40;;;2.63;;
15938;SDS011;8068;51.322;9.450;2023-04-25T08:58:08;10.50;;;2.70;;
15938;SDS011;8068;51.322;9.450;2023-04-25T09:00:36;10.20;;;2.63;;
15938;SDS011;8068;51.322;9.450;2023-04-25T09:03:02;7.63;;;2.77;;
15938;SDS011;8068;51.322;9.450;2023-04-25T09:05:29;7.60;;;2.23;;
15938;SDS011;8068;51.322;9.450;2023-04-25T09:07:55;5.73;;;2.20;;
15938;SDS011;8068;51.322;9.450;2023-04-25T09:10:22;8.20;;;2.57;;
15938;SDS011;8068;51.322;9.450;2023-04-25T09:13:04;15.40;;;2.60;;
15938;SDS011;8068;51.322;9.450;2023-04-25T09:15:31;6.67;;;2.13;;
15938;SDS011;8068;51.322;9.450;2023-04-25T09:17:58;7.50;;;2.70;;
15938;SDS011;8068;51.322;9.450;2023-04-25T09:20:25;5.20;;;2.37;;
15938;SDS011;8068;51.322;9.450;2023-04-25T09:23:01;12.13;;;2.70;;
15938;SDS011;8068;51.322;9.450;2023-04-25T09:25:33;17.37;;;2.60;;
15938;SDS011;8068;51.322;9.450;2023-04-25T09:28:05;3.93;;;2.17;;
15938;SDS011;8068;51.322;9.450;2023-04-25T09:30:33;7.30;;;2.40;;
15938;SDS011;8068;51.322;9.450;2023-04-25T09:33:04;5.73;;;2.33;;
15938;SDS011;8068;51.322;9.450;2023-04-25T09:35:38;12.23;;;2.70;;
15938;SDS011;8068;51.322;9.450;2023-04-25T09:38:11;5.40;;;1.93;;
15938;SDS011;8068;51.322;9.450;2023-04-25T09:40:41;6.67;;;2.63;;
15938;SDS011;8068;51.322;9.450;2023-04-25T09:45:50;4.50;;;2.27;;
15938;SDS011;8068;51.322;9.450;2023-04-25T09:48:18;10.73;;;2.50;;
15938;SDS011;8068;51.322;9.450;2023-04-25T09:50:52;4.23;;;1.93;;
15938;SDS011;8068;51.322;9.450;2023-04-25T09:53:29;7.50;;;2.20;;
15938;SDS011;8068;51.322;9.450;2023-04-25T09:55:56;13.20;;;2.40;;
15938;SDS011;8068;51.322;9.450;2023-04-25T09:58:23;10.20;;;3.20;;
15938;SDS011;8068;51.322;9.450;2023-04-25T10:00:51;6.73;;;2.40;;
15938;SDS011;8068;51.322;9.450;2023-04-25T10:03:17;7.37;;;2.47;;
15938;SDS011;8068;51.322;9.450;2023-04-25T10:05:43;4.40;;;2.23;;
15938;SDS011;8068;51.322;9.450;2023-04-25T10:08:10;5.63;;;2.10;;
15938;SDS011;8068;51.322;9.450;2023-04-25T10:10:37;19.10;;;2.20;;
15938;SDS011;8068;51.322;9.450;2023-04-25T10:13:04;9.03;;;2.13;;
15938;SDS011;8068;51.322;9.450;2023-04-25T10:15:33;8.30;;;3.40;;
15938;SDS011;8068;51.322;9.450;2023-04-25T10:18:04;6.03;;;2.17;;
15938;SDS011;8068;51.322;9.450;2023-04-25T10:20:31;5.37;;;2.40;;
15938;SDS011;8068;51.322;9.450;2023-04-25T10:22:58;4.73;;;1.83;;
15938;SDS011;8068;51.322;9.450;2023-04-25T10:25:30;9.50;;;2.23;;
15938;SDS011;8068;51.322;9.450;2023-04-25T10:27:57;5.30;;;1.50;;
15938;SDS011;8068;51.322;9.450;2023-04-25T10:30:25;9.27;;;1.90;;
15938;SDS011;8068;51.322;9.450;2023-04-25T10:32:51;4.47;;;1.63;;
15938;SDS011;8068;51.322;9.450;2023-04-25T10:35:24;5.87;;;1.70;;
15938;SDS011;8068;51.322;9.450;2023-04-25T10:38:05;5.97;;;1.90;;
15938;SDS011;8068;51.322;9.450;2023-04-25T10:40:35;4.07;;;1.97;;
15938;SDS011;8068;51.322;9.450;2023-04-25T10:45:59;3.90;;;1.50;;
15938;SDS011;8068;51.322;9.450;2023-04-25T10:48:30;12.97;;;2.13;;
15938;SDS011;8068;51.322;9.450;2023-04-25T10:51:09;6.83;;;2.20;;
15938;SDS011;8068;51.322;9.450;2023-04-25T10:56:21;9.70;;;1.87;;
15938;SDS011;8068;51.322;9.450;2023-04-25T10:58:48;3.03;;;1.20;;
15938;SDS011;8068;51.322;9.450;2023-04-25T11:01:21;2.90;;;1.60;;
15938;SDS011;8068;51.322;9.450;2023-04-25T11:03:56;2.90;;;1.63;;
15938;SDS011;8068;51.322;9.450;2023-04-25T11:06:29;5.43;;;1.50;;
15938;SDS011;8068;51.322;9.450;2023-04-25T11:08:59;4.67;;;2.03;;
15938;SDS011;8068;51.322;9.450;2023-04-25T11:11:26;4.33;;;1.53;;
15938;SDS011;8068;51.322;9.450;2023-04-25T11:13:54;6.83;;;1.70;;
15938;SDS011;8068;51.322;9.450;2023-04-25T11:16:20;6.47;;;1.50;;
15938;SDS011;8068;51.322;9.450;2023-04-25T11:18:56;3.10;;;1.47;;
15938;SDS011;8068;51.322;9.450;2023-04-25T11:21:23;3.30;;;1.40;;
15938;SDS011;8068;51.322;9.450;2023-04-25T11:23:49;2.07;;;1.17;;
15938;SDS011;8068;51.322;9.450;2023-04-25T11:26:16;3.03;;;1.03;;
15938;SDS011;8068;51.322;9.450;2023-04-25T11:28:44;3.33;;;1.27;;
15938;SDS011;8068;51.322;9.450;2023-04-25T11:31:10;1.73;;;1.20;;
15938;SDS011;8068;51.322;9.450;2023-04-25T11:33:37;4.80;;;1.40;;
15938;SDS011;8068;51.322;9.450;2023-04-25T11:36:03;7.83;;;1.43;;
15938;SDS011;8068;51.322;9.450;2023-04-25T11:38:29;3.53;;;1.13;;
15938;SDS011;8068;51.322;9.450;2023-04-25T11:40:56;3.00;;;1.37;;
15938;SDS011;8068;51.322;9.450;2023-04-25T11:43:22;4.30;;;1.30;;
15938;SDS011;8068;51.322;9.450;2023-04-25T11:45:49;5.00;;;1.57;;
15938;SDS011;8068;51.322;9.450;2023-04-25T11:48:16;3.57;;;1.33;;
15938;SDS011;8068;51.322;9.450;2023-04-25T11:50:43;2.07;;;1.50;;
15938;SDS011;8068;51.322;9.450;2023-04-25T11:53:09;10.30;;;1.93;;
15938;SDS011;8068;51.322;9.450;2023-04-25T11:55:36;1.97;;;1.30;;
15938;SDS011;8068;51.322;9.450;2023-04-25T11:58:03;3.87;;;1.43;;
15938;SDS011;8068;51.322;9.450;2023-04-25T12:00:30;13.17;;;2.40;;
15938;SDS011;8068;51.322;9.450;2023-04-25T12:02:57;5.60;;;1.87;;
15938;SDS011;8068;51.322;9.450;2023-04-25T12:05:25;3.07;;;1.50;;
15938;SDS011;8068;51.322;9.450;2023-04-25T12:08:12;5.87;;;1.60;;
15938;SDS011;8068;51.322;9.450;2023-04-25T12:10:39;11.67;;;2.00;;
15938;SDS011;8068;51.322;9.450;2023-04-25T12:13:25;3.47;;;1.37;;
15938;SDS011;8068;51.322;9.450;2023-04-25T12:15:55;1.50;;;1.10;;
15938;SDS011;8068;51.322;9.450;2023-04-25T12:18:25;4.00;;;1.30;;
15938;SDS011;8068;51.322;9.450;2023-04-25T12:20:54;6.83;;;1.50;;
15938;SDS011;8068;51.322;9.450;2023-04-25T12:23:27;12.63;;;1.70;;
15938;SDS011;8068;51.322;9.450;2023-04-25T12:25:56;6.13;;;1.17;;
15938;SDS011;8068;51.322;9.450;2023-04-25T12:28:24;6.83;;;1.30;;
15938;SDS011;8068;51.322;9.450;2023-04-25T12:30:56;2.47;;;1.30;;
15938;SDS011;8068;51.322;9.450;2023-04-25T12:33:27;4.20;;;1.37;;
15938;SDS011;8068;51.322;9.450;2023-04-25T12:35:54;2.50;;;1.23;;
15938;SDS011;8068;51.322;9.450;2023-04-25T12:38:24;3.33;;;1.43;;
15938;SDS011;8068;51.322;9.450;2023-04-25T12:40:51;4.80;;;1.80;;
15938;SDS011;8068;51.322;9.450;2023-04-25T12:43:17;2.03;;;1.30;;
15938;SDS011;8068;51.322;9.450;2023-04-25T12:45:44;4.40;;;1.80;;
15938;SDS011;8068;51.322;9.450;2023-04-25T12:48:12;5.60;;;1.37;;
15938;SDS011;8068;51.322;9.450;2023-04-25T12:50:39;4.47;;;1.50;;
15938;SDS011;8068;51.322;9.450;2023-04-25T12:53:05;3.17;;;1.80;;
15938;SDS011;8068;51.322;9.450;2023-04-25T12:55:31;7.77;;;1.93;;
15938;SDS011;8068;51.322;9.450;2023-04-25T12:57:57;5.30;;;1.83;;
15938;SDS011;8068;51.322;9.450;2023-04-25T13:00:23;5.90;;;1.53;;
15938;SDS011;8068;51.322;9.450;2023-04-25T13:02:50;4.43;;;1.50;;
15938;SDS011;8068;51.322;9.450;2023-04-25T13:05:16;3.37;;;1.70;;
15938;SDS011;8068;51.322;9.450;2023-04-25T13:07:42;3.00;;;1.50;;
15938;SDS011;8068;51.322;9.450;2023-04-25T13:10:09;3.33;;;1.50;;
15938;SDS011;8068;51.322;9.450;2023-04-25T13:12:36;3.53;;;1.53;;
15938;SDS011;8068;51.322;9.450;2023-04-25T13:15:02;7.03;;;1.60;;
15938;SDS011;8068;51.322;9.450;2023-04-25T13:17:28;3.23;;;1.37;;
15938;SDS011;8068;51.322;9.450;2023-04-25T13:19:55;1.90;;;1.20;;
15938;SDS011;8068;51.322;9.450;2023-04-25T13:22:21;2.80;;;1.10;;
15938;SDS011;8068;51.322;9.450;2023-04-25T13:24:47;3.73;;;1.00;;
15938;SDS011;8068;51.322;9.450;2023-04-25T13:27:13;1.97;;;1.00;;
15938;SDS011;8068;51.322;9.450;2023-04-25T13:29:40;4.07;;;1.20;;
15938;SDS011;8068;51.322;9.450;2023-04-25T13:32:06;5.47;;;1.17;;
15938;SDS011;8068;51.322;9.450;2023-04-25T13:34:33;1.80;;;1.10;;
15938;SDS011;8068;51.322;9.450;2023-04-25T13:36:59;2.87;;;1.60;;
15938;SDS011;8068;51.322;9.450;2023-04-25T13:39:26;9.07;;;1.70;;
15938;SDS011;8068;51.322;9.450;2023-04-25T13:41:52;5.43;;;1.50;;
15938;SDS011;8068;51.322;9.450;2023-04-25T13:44:18;3.73;;;1.43;;
15938;SDS011;8068;51.322;9.450;2023-04-25T13:46:44;5.73;;;1.70;;
15938;SDS011;8068;51.322;9.450;2023-04-25T13:49:13;3.27;;;1.77;;
15938;SDS011;8068;51.322;9.450;2023-04-25T13:51:40;4.07;;;1.40;;
15938;SDS011;8068;51.322;9.450;2023-04-25T13:54:06;3.70;;;1.27;;
15938;SDS011;8068;51.322;9.450;2023-04-25T13:56:33;2.00;;;1.30;;
15938;SDS011;8068;51.322;9.450;2023-04-25T13:58:59;4.73;;;1.23;;
15938;SDS011;8068;51.322;9.450;2023-04-25T14:01:25;3.90;;;1.27;;
15938;SDS011;8068;51.322;9.450;2023-04-25T14:03:52;2.20;;;1.10;;
15938;SDS011;8068;51.322;9.450;2023-04-25T14:06:19;2.00;;;1.40;;
15938;SDS011;8068;51.322;9.450;2023-04-25T14:08:49;1.63;;;1.10;;
15938;SDS011;8068;51.322;9.450;2023-04-25T14:11:18;5.10;;;1.60;;
15938;SDS011;8068;51.322;9.450;2023-04-25T14:13:45;2.63;;;2.00;;
15938;SDS011;8068;51.322;9.450;2023-04-25T14:16:11;7.33;;;1.60;;
15938;SDS011;8068;51.322;9.450;2023-04-25T14:18:37;4.93;;;1.30;;
15938;SDS011;8068;51.322;9.450;2023-04-25T14:21:04;7.70;;;1.40;;
15938;SDS011;8068;51.322;9.450;2023-04-25T14:23:30;3.63;;;1.33;;
15938;SDS011;8068;51.322;9.450;2023-04-25T14:25:57;5.23;;;2.53;;
15938;SDS011;8068;51.322;9.450;2023-04-25T14:28:23;2.87;;;1.53;;
15938;SDS011;8068;51.322;9.450;2023-04-25T14:30:49;6.00;;;1.13;;
15938;SDS011;8068;51.322;9.450;2023-04-25T14:33:15;3.10;;;1.70;;
15938;SDS011;8068;51.322;9.450;2023-04-25T14:35:41;4.87;;;1.93;;
15938;SDS011;8068;51.322;9.450;2023-04-25T14:38:07;2.23;;;1.40;;
15938;SDS011;8068;51.322;9.450;2023-04-25T14:40:33;3.93;;;1.00;;
15938;SDS011;8068;51.322;9.450;2023-04-25T14:43:00;3.50;;;1.30;;
15938;SDS011;8068;51.322;9.450;2023-04-25T14:45:26;3.80;;;1.37;;
15938;SDS011;8068;51.322;9.450;2023-04-25T14:47:52;8.40;;;1.47;;
15938;SDS011;8068;51.322;9.450;2023-04-25T14:50:18;1.83;;;1.20;;
15938;SDS011;8068;51.322;9.450;2023-04-25T14:52:44;2.17;;;1.20;;
15938;SDS011;8068;51.322;9.450;2023-04-25T14:55:11;1.43;;;1.00;;
15938;SDS011;8068;51.322;9.450;2023-04-25T14:57:38;1.40;;;1.10;;
15938;SDS011;8068;51.322;9.450;2023-04-25T15:00:05;3.20;;;1.50;;
15938;SDS011;8068;51.322;9.450;2023-04-25T15:02:35;8.20;;;1.77;;
15938;SDS011;8068;51.322;9.450;2023-04-25T15:05:02;1.90;;;1.10;;
15938;SDS011;8068;51.322;9.450;2023-04-25T15:07:29;2.03;;;1.17;;